createdAt,value
2023-03-12T00:01:26.376Z,11.63
2023-03-12T00:03:57.155Z,11.63
2023-03-12T00:06:26.920Z,12.18
2023-03-12T00:08:56.298Z,11.25
2023-03-12T00:11:26.348Z,10.88
2023-03-12T00:14:05.384Z,12.30
2023-03-12T00:16:32.435Z,12.10
2023-03-12T00:19:06.248Z,11.55
2023-03-12T00:21:35.499Z,11.82
2023-03-12T00:24:02.291Z,10.93
2023-03-12T00:26:28.950Z,11.85
2023-03-12T00:28:56.096Z,10.52
2023-03-12T00:31:29.307Z,13.30
2023-03-12T00:34:04.811Z,13.00
2023-03-12T00:36:33.168Z,11.07
2023-03-12T00:39:01.478Z,10.82
2023-03-12T00:41:30.493Z,10.32
2023-03-12T00:43:57.759Z,11.02
2023-03-12T00:46:30.456Z,10.68
2023-03-12T00:48:57.165Z,10.55
2023-03-12T00:51:24.022Z,9.88
2023-03-12T00:53:50.878Z,10.35
2023-03-12T00:56:17.829Z,9.07
2023-03-12T00:58:49.326Z,9.40
2023-03-12T01:01:16.257Z,9.13
2023-03-12T01:03:43.210Z,9.30
2023-03-12T01:06:09.974Z,7.10
2023-03-12T01:08:46.333Z,8.50
2023-03-12T01:11:21.404Z,8.55
2023-03-12T01:13:49.130Z,9.50
2023-03-12T01:16:15.865Z,7.05
2023-03-12T01:18:45.738Z,8.75
2023-03-12T01:21:18.276Z,8.40
2023-03-12T01:23:56.063Z,7.63
2023-03-12T01:26:23.339Z,7.50
2023-03-12T01:28:50.923Z,7.32
2023-03-12T01:31:20.633Z,9.30
2023-03-12T01:33:56.355Z,7.30
2023-03-12T01:36:33.667Z,6.90
2023-03-12T01:39:03.267Z,7.32
2023-03-12T01:41:33.682Z,6.57
2023-03-12T01:44:05.429Z,7.85
2023-03-12T01:46:46.474Z,7.03
2023-03-12T01:49:33.348Z,5.72
2023-03-12T01:52:38.901Z,6.65
2023-03-12T01:55:16.553Z,6.82
2023-03-12T01:57:57.542Z,7.28
2023-03-12T02:00:27.805Z,6.07
2023-03-12T02:03:03.797Z,6.78
2023-03-12T02:06:03.811Z,6.80
2023-03-12T02:08:30.706Z,6.07
2023-03-12T02:10:57.537Z,7.63
2023-03-12T02:13:27.256Z,6.15
2023-03-12T02:15:57.155Z,6.88
2023-03-12T02:18:25.430Z,7.93
2023-03-12T02:21:27.190Z,7.50
2023-03-12T02:24:25.294Z,8.32
2023-03-12T02:26:52.379Z,8.00
2023-03-12T02:29:19.431Z,7.45
2023-03-12T02:31:59.688Z,6.07
2023-03-12T02:34:27.857Z,6.32
2023-03-12T02:36:57.581Z,6.00
2023-03-12T02:39:27.927Z,6.63
2023-03-12T02:41:58.746Z,5.35
2023-03-12T02:44:41.182Z,6.25
2023-03-12T02:47:07.915Z,6.28
2023-03-12T02:49:35.673Z,6.80
2023-03-12T02:52:04.439Z,5.97
2023-03-12T02:54:37.073Z,5.38
2023-03-12T02:57:04.228Z,4.90
2023-03-12T02:59:34.070Z,5.65
2023-03-12T03:02:02.109Z,5.75
2023-03-12T03:04:36.210Z,5.13
2023-03-12T03:07:03.182Z,5.78
2023-03-12T03:09:29.963Z,5.53
2023-03-12T03:11:56.749Z,6.10
2023-03-12T03:14:23.807Z,5.70
2023-03-12T03:16:50.811Z,5.82
2023-03-12T03:19:18.190Z,5.90
2023-03-12T03:21:53.527Z,5.97
2023-03-12T03:24:20.995Z,7.68
2023-03-12T03:26:47.812Z,6.70
2023-03-12T03:29:14.837Z,6.43
2023-03-12T03:31:53.900Z,6.25
2023-03-12T03:34:20.634Z,5.90
2023-03-12T03:36:47.312Z,6.72
2023-03-12T03:39:14.010Z,5.63
2023-03-12T03:41:44.064Z,5.18
2023-03-12T03:44:12.124Z,5.43
2023-03-12T03:46:42.449Z,5.95
2023-03-12T03:49:13.474Z,5.43
2023-03-12T03:51:44.309Z,5.63
2023-03-12T03:54:14.647Z,6.05
2023-03-12T03:56:48.537Z,5.60
2023-03-12T03:59:15.199Z,7.28
2023-03-12T04:01:47.738Z,6.35
2023-03-12T04:04:20.336Z,6.18
2023-03-12T04:06:47.301Z,5.93
2023-03-12T04:09:18.669Z,6.03
2023-03-12T04:11:53.893Z,5.82
2023-03-12T04:14:20.594Z,6.45
2023-03-12T04:16:47.237Z,5.97
2023-03-12T04:19:20.043Z,5.22
2023-03-12T04:21:49.769Z,5.80
2023-03-12T04:24:18.557Z,6.03
2023-03-12T04:26:45.381Z,7.07
2023-03-12T04:29:12.163Z,5.85
2023-03-12T04:31:38.877Z,5.35
2023-03-12T04:34:05.727Z,6.78
2023-03-12T04:36:32.964Z,5.63
2023-03-12T04:39:02.347Z,6.22
2023-03-12T04:41:29.020Z,6.35
2023-03-12T04:43:59.007Z,7.63
2023-03-12T04:46:28.973Z,8.98
2023-03-12T04:49:02.738Z,9.20
2023-03-12T04:51:30.678Z,8.95
2023-03-12T04:53:59.281Z,7.75
2023-03-12T04:56:26.439Z,8.50
2023-03-12T04:58:53.240Z,8.35
2023-03-12T05:01:33.111Z,7.35
2023-03-12T05:04:01.892Z,6.93
2023-03-12T05:06:32.697Z,6.88
2023-03-12T05:08:59.601Z,7.10
2023-03-12T05:11:26.465Z,6.60
2023-03-12T05:13:53.825Z,7.13
2023-03-12T05:16:20.774Z,7.25
2023-03-12T05:18:49.715Z,6.82
2023-03-12T05:21:27.920Z,8.30
2023-03-12T05:23:55.862Z,7.85
2023-03-12T05:26:29.378Z,7.93
2023-03-12T05:28:56.295Z,7.90
2023-03-12T05:31:26.325Z,8.40
2023-03-12T05:33:54.381Z,8.27
2023-03-12T05:36:21.122Z,9.23
2023-03-12T05:38:51.971Z,7.80
2023-03-12T05:41:36.981Z,6.85
2023-03-12T05:44:03.940Z,7.63
2023-03-12T05:46:30.652Z,6.75
2023-03-12T05:48:57.633Z,6.53
2023-03-12T05:51:31.293Z,8.70
2023-03-12T05:53:59.301Z,7.35
2023-03-12T05:56:26.225Z,9.13
2023-03-12T05:58:56.151Z,8.70
2023-03-12T06:01:31.067Z,9.00
2023-03-12T06:03:57.840Z,8.98
2023-03-12T06:06:26.320Z,9.57
2023-03-12T06:08:55.068Z,8.80
2023-03-12T06:11:22.141Z,10.30
2023-03-12T06:13:49.120Z,9.98
2023-03-12T06:16:25.469Z,10.10
2023-03-12T06:19:00.356Z,10.32
2023-03-12T06:21:32.411Z,11.43
2023-03-12T06:23:59.865Z,12.07
2023-03-12T06:26:28.972Z,12.05
2023-03-12T06:28:58.417Z,12.10
2023-03-12T06:31:28.048Z,12.48
2023-03-12T06:33:54.803Z,14.02
2023-03-12T06:36:23.305Z,13.85
2023-03-12T06:38:50.703Z,13.70
2023-03-12T06:41:20.911Z,15.02
2023-03-12T06:43:48.562Z,15.35
2023-03-12T06:46:25.726Z,16.30
2023-03-12T06:48:52.492Z,15.98
2023-03-12T06:51:19.187Z,14.73
2023-03-12T06:53:46.992Z,14.30
2023-03-12T06:56:14.836Z,14.73
2023-03-12T06:58:45.619Z,13.77
2023-03-12T07:01:14.986Z,14.02
2023-03-12T07:03:51.783Z,14.45
2023-03-12T07:06:23.030Z,13.13
2023-03-12T07:08:50.822Z,14.13
2023-03-12T07:11:21.813Z,16.10
2023-03-12T07:13:48.565Z,14.00
2023-03-12T07:16:15.414Z,13.05
2023-03-12T07:18:42.521Z,13.68
2023-03-12T07:21:10.551Z,13.80
2023-03-12T07:23:37.209Z,12.95
2023-03-12T07:26:06.383Z,12.75
2023-03-12T07:28:41.680Z,12.73
2023-03-12T07:31:09.874Z,13.85
2023-03-12T07:33:36.886Z,14.55
2023-03-12T07:36:07.865Z,14.25
2023-03-12T07:38:51.322Z,15.23
2023-03-12T07:41:18.221Z,14.05
2023-03-12T07:43:52.814Z,14.25
2023-03-12T07:46:26.126Z,13.82
2023-03-12T07:48:58.441Z,13.80
2023-03-12T07:54:30.707Z,15.43
2023-03-12T09:18:15.437Z,28.42
2023-03-12T09:31:41.714Z,25.33
2023-03-12T10:32:47.148Z,15.13
2023-03-12T10:50:37.589Z,15.32
2023-03-12T11:16:32.071Z,17.95
2023-03-12T11:19:06.393Z,18.33
2023-03-12T11:21:38.343Z,16.45
2023-03-12T11:24:16.149Z,17.35
2023-03-12T11:37:15.272Z,15.20
2023-03-12T12:35:57.081Z,9.05
2023-03-12T13:03:31.828Z,4.73
2023-03-12T13:08:46.594Z,4.70
2023-03-12T13:11:20.079Z,5.10
2023-03-12T13:14:20.848Z,6.03
2023-03-12T13:16:48.940Z,6.18
2023-03-12T13:19:18.788Z,6.07
2023-03-12T13:46:47.324Z,7.65
2023-03-12T14:29:08.302Z,6.40
2023-03-12T14:31:38.628Z,6.65
2023-03-12T16:05:51.011Z,7.47
2023-03-12T16:08:47.018Z,9.18
2023-03-12T16:33:45.052Z,10.15
2023-03-12T16:36:19.184Z,9.52
2023-03-12T16:38:52.286Z,11.20
2023-03-12T16:41:20.070Z,11.30
2023-03-12T16:43:53.796Z,10.45
2023-03-12T16:46:23.229Z,11.93
2023-03-12T16:57:04.739Z,14.75
2023-03-12T17:02:29.844Z,15.45
2023-03-12T17:04:56.735Z,15.30
2023-03-12T17:07:26.020Z,11.00
2023-03-12T17:09:54.037Z,15.43
2023-03-12T17:12:38.699Z,21.88
2023-03-12T17:17:55.778Z,14.45
2023-03-12T17:20:24.904Z,17.90
2023-03-12T17:22:52.585Z,20.05
2023-03-12T17:25:31.420Z,29.08
2023-03-12T17:27:59.044Z,20.73
2023-03-12T17:30:30.861Z,20.38
2023-03-12T17:33:14.645Z,17.98
2023-03-12T17:35:45.402Z,19.20
2023-03-12T17:38:13.231Z,18.08
2023-03-12T17:40:55.175Z,17.10
2023-03-12T17:43:21.970Z,18.40
2023-03-12T17:45:49.571Z,18.20
2023-03-12T17:48:31.524Z,18.42
2023-03-12T17:50:58.765Z,18.10
2023-03-12T17:53:25.578Z,18.60
2023-03-12T17:55:54.612Z,20.20
2023-03-12T17:58:22.256Z,16.45
2023-03-12T18:00:51.848Z,17.70
2023-03-12T18:03:18.745Z,18.05
2023-03-12T18:05:49.711Z,17.77
2023-03-12T18:08:16.641Z,18.80
2023-03-12T18:10:43.606Z,19.48
2023-03-12T18:13:11.361Z,20.17
2023-03-12T18:15:42.469Z,15.70
2023-03-12T18:18:09.249Z,19.48
2023-03-12T18:20:39.668Z,19.90
2023-03-12T18:23:07.139Z,19.13
2023-03-12T18:25:38.413Z,17.88
2023-03-12T18:28:08.307Z,17.98
2023-03-12T18:30:35.729Z,18.13
2023-03-12T18:33:02.537Z,17.33
2023-03-12T18:35:32.224Z,15.98
2023-03-12T18:38:00.006Z,14.63
2023-03-12T18:40:28.948Z,14.65
2023-03-12T18:43:02.907Z,16.52
2023-03-12T19:01:52.000Z,15.80
2023-03-12T19:31:25.435Z,19.13
2023-03-12T19:33:52.297Z,19.48
2023-03-12T20:08:51.051Z,25.85
2023-03-12T20:11:18.023Z,24.40
2023-03-12T20:24:35.812Z,27.05
2023-03-12T20:56:56.749Z,26.55
2023-03-12T22:18:47.629Z,29.38
2023-03-12T22:21:20.276Z,24.80
2023-03-12T22:23:50.924Z,29.83
2023-03-12T22:26:19.057Z,29.92
2023-03-12T22:28:57.420Z,26.27
2023-03-12T22:53:37.761Z,24.13
2023-03-12T22:58:58.611Z,24.80
2023-03-12T23:01:26.120Z,21.75
2023-03-12T23:03:56.277Z,22.98
2023-03-12T23:06:30.150Z,20.90
2023-03-12T23:08:58.035Z,21.35
2023-03-12T23:11:32.457Z,22.00
2023-03-12T23:13:59.727Z,20.83
2023-03-12T23:16:27.337Z,22.10
2023-03-12T23:18:56.498Z,20.73
2023-03-12T23:21:25.372Z,19.65
2023-03-12T23:23:53.392Z,22.33
2023-03-12T23:26:27.446Z,19.40
2023-03-12T23:28:58.167Z,21.48
2023-03-12T23:53:07.169Z,13.38
2023-03-12T23:55:36.957Z,14.07
2023-03-12T23:58:03.728Z,14.98
